Time;durP1;ratioP1;P1;durP2;ratioP2;P2;SDS_P1;SDS_P2;PMS_P1;PMS_P2;Temp;Humidity;BMP_temperature;BMP_pressure;BME280_temperature;BME280_humidity;BME280_pressure;Samples;Min_cycle;Max_cycle;Signal;HPM_P1;HPM_P2
2023/05/10 00:00:35;;;;;;;;;;;;;;;11.25;73.36;99430.88;4167465;34;35884;-89
2023/05/10 00:03:04;;;;;;;;;;;;;;;11.09;74.04;99434.53;4168097;34;35190;-89
2023/05/10 00:05:32;;;;;;;;;;;;;;;10.86;75.41;99440.00;4171921;34;34345;-89
2023/05/10 00:08:00;;;;;;;;;;;;;;;10.73;76.37;99434.94;4165629;34;32148;-88
2023/05/10 00:10:28;;;;;;;;;;;;;;;10.44;77.92;99433.44;4154219;34;33934;-90
2023/05/10 00:12:56;;;;;;;;;;;;;;;10.24;77.91;99437.94;4165621;34;36252;-90
2023/05/10 00:15:26;;;;;;;;;;;;;;;10.14;78.28;99431.06;4178145;34;34986;-89
2023/05/10 00:17:54;;;;;;;;;;;;;;;10.05;79.10;99432.84;4180405;34;33645;-89
2023/05/10 00:20:22;;;;;;;;;;;;;;;9.79;79.89;99434.75;4190898;34;34968;-89
2023/05/10 00:22:51;;;;;;;;;;;;;;;9.92;80.27;99428.63;4180706;34;35080;-88
2023/05/10 00:25:22;;;;;;;;;;;;;;;9.73;80.64;99434.81;4169965;34;35571;-90
2023/05/10 00:27:50;;;;;;;;;;;;;;;9.86;81.48;99426.94;4158190;34;32672;-89
2023/05/10 00:30:18;;;;;;;;;;;;;;;9.64;82.22;99428.78;4169131;34;34085;-89
2023/05/10 00:32:49;;;;;;;;;;;;;;;9.64;82.95;99426.19;4169689;34;35219;-89
2023/05/10 00:35:18;;;;;;;;;;;;;;;9.35;83.85;99430.66;4168855;34;34681;-89
2023/05/10 00:37:45;;;;;;;;;;;;;;;9.26;83.45;99432.41;4168766;34;33476;-89
2023/05/10 00:40:14;;;;;;;;;;;;;;;9.16;84.00;99417.75;4169278;34;32644;-89
2023/05/10 00:42:43;;;;;;;;;;;;;;;9.26;84.43;99424.63;4157745;34;35472;-88
2023/05/10 00:45:11;;;;;;;;;;;;;;;9.07;86.13;99422.97;4168784;34;34756;-89
2023/05/10 00:47:42;;;;;;;;;;;;;;;9.15;85.71;99426.41;4180658;34;33312;-89
2023/05/10 00:50:10;;;;;;;;;;;;;;;8.70;86.77;99423.06;4169098;34;34627;-89
2023/05/10 00:52:38;;;;;;;;;;;;;;;8.72;86.64;99429.13;4168356;34;36189;-89
2023/05/10 00:55:06;;;;;;;;;;;;;;;8.68;86.44;99424.78;4168536;34;34436;-89
2023/05/10 00:57:34;;;;;;;;;;;;;;;8.69;87.74;99422.19;4181210;34;33643;-89
2023/05/10 01:00:02;;;;;;;;;;;;;;;8.85;86.92;99423.03;4157409;34;34254;-89
2023/05/10 01:02:30;;;;;;;;;;;;;;;8.85;87.34;99423.03;4179720;34;35193;-90
2023/05/10 01:04:58;;;;;;;;;;;;;;;8.79;87.56;99417.88;4180248;34;34919;-89
2023/05/10 01:07:26;;;;;;;;;;;;;;;9.26;85.59;99416.81;4180630;34;33308;-90
2023/05/10 01:09:54;;;;;;;;;;;;;;;9.56;84.28;99417.53;4169233;34;34043;-89
2023/05/10 01:12:22;;;;;;;;;;;;;;;9.51;85.54;99414.09;4181646;34;35225;-89
2023/05/10 01:14:50;;;;;;;;;;;;;;;9.65;85.76;99416.63;4167570;34;34594;-89
2023/05/10 01:17:18;;;;;;;;;;;;;;;9.62;85.76;99417.53;4178973;34;34414;-89
2023/05/10 01:19:46;;;;;;;;;;;;;;;9.55;86.28;99413.25;4178937;34;33994;-89
2023/05/10 01:22:37;;;;;;;;;;;;;;;9.62;85.81;99414.94;4178722;34;34942;-89
2023/05/10 01:25:24;;;;;;;;;;;;;;;9.95;85.18;99412.97;4160279;34;34822;-89
2023/05/10 01:27:55;;;;;;;;;;;;;;;9.77;85.21;99418.31;4180766;34;33245;-90
2023/05/10 01:30:43;;;;;;;;;;;;;;;10.28;82.59;99418.81;4180022;34;33915;-89
2023/05/10 01:33:11;;;;;;;;;;;;;;;9.91;84.80;99416.47;4167871;34;35002;-89
2023/05/10 01:35:53;;;;;;;;;;;;;;;9.54;86.48;99414.09;4179609;34;34318;-89
2023/05/10 01:38:20;;;;;;;;;;;;;;;9.52;86.13;99415.84;4168681;34;33344;-89
2023/05/10 01:41:07;;;;;;;;;;;;;;;9.34;86.81;99410.75;4182047;34;35143;-89
2023/05/10 01:43:55;;;;;;;;;;;;;;;9.61;85.86;99414.94;4181903;34;35582;-90
2023/05/10 01:46:27;;;;;;;;;;;;;;;9.63;84.96;99407.97;4174421;28;35411;-89
2023/05/10 01:48:56;;;;;;;;;;;;;;;8.99;88.42;99415.19;4191531;34;33666;-89
2023/05/10 01:51:27;;;;;;;;;;;;;;;9.05;88.48;99412.59;4191408;34;33962;-90
2023/05/10 01:53:58;;;;;;;;;;;;;;;9.19;88.28;99411.66;4191461;34;35464;-89
2023/05/10 01:56:28;;;;;;;;;;;;;;;9.20;86.52;99413.41;4180218;34;35322;-89
2023/05/10 01:58:55;;;;;;;;;;;;;;;9.27;86.35;99405.56;4151054;34;32598;-89
2023/05/10 02:01:23;;;;;;;;;;;;;;;9.45;86.45;99403.75;4155229;34;34182;-89
2023/05/10 02:03:52;;;;;;;;;;;;;;;9.45;85.23;99406.34;4167369;34;35212;-89
2023/05/10 02:06:23;;;;;;;;;;;;;;;9.94;82.46;99398.25;4167769;34;35617;-89
2023/05/10 02:08:52;;;;;;;;;;;;;;;9.38;85.50;99394.25;4195254;28;33677;-92
2023/05/10 02:11:20;;;;;;;;;;;;;;;9.59;84.55;99391.53;4168661;34;34042;-88
2023/05/10 02:13:49;;;;;;;;;;;;;;;9.36;85.69;99389.06;4168730;34;33661;-88
2023/05/10 02:16:17;;;;;;;;;;;;;;;8.96;85.88;99388.38;4168780;34;34761;-88
2023/05/10 02:18:45;;;;;;;;;;;;;;;9.36;84.63;99391.66;4180467;34;33198;-87
2023/05/10 02:21:13;;;;;;;;;;;;;;;9.53;85.52;99391.59;4180204;34;34326;-90
2023/05/10 02:23:41;;;;;;;;;;;;;;;9.24;87.56;99384.78;4192399;34;35133;-89
2023/05/10 02:26:09;;;;;;;;;;;;;;;9.47;85.73;99383.81;4179992;34;34829;-88
2023/05/10 02:28:37;;;;;;;;;;;;;;;9.38;87.31;99389.91;4180066;34;33304;-88
2023/05/10 02:31:05;;;;;;;;;;;;;;;9.30;87.66;99382.19;4168790;34;34208;-92
2023/05/10 02:33:33;;;;;;;;;;;;;;;9.33;88.67;99376.09;4192061;34;35192;-87
2023/05/10 02:36:02;;;;;;;;;;;;;;;9.51;88.68;99375.13;4179640;34;34775;-93
2023/05/10 02:38:30;;;;;;;;;;;;;;;9.85;87.10;99385.31;4179381;34;32537;-87
2023/05/10 02:40:59;;;;;;;;;;;;;;;9.70;89.33;99388.03;4168396;34;34999;-95
2023/05/10 02:43:26;;;;;;;;;;;;;;;10.13;87.38;99387.69;4167373;34;35170;-92
2023/05/10 02:45:55;;;;;;;;;;;;;;;10.29;86.44;99394.50;4168475;34;34207;-88
2023/05/10 02:48:24;;;;;;;;;;;;;;;10.49;86.00;99383.09;4191957;34;34539;-90
2023/05/10 02:50:52;;;;;;;;;;;;;;;10.15;86.35;99392.03;4179183;34;32664;-88
2023/05/10 02:53:23;;;;;;;;;;;;;;;10.04;86.61;99389.50;4179462;34;35271;-91
2023/05/10 02:55:52;;;;;;;;;;;;;;;10.21;86.68;99383.28;4168338;34;34809;-87
2023/05/10 02:58:20;;;;;;;;;;;;;;;10.27;85.51;99383.25;4191804;34;33613;-88
2023/05/10 03:00:48;;;;;;;;;;;;;;;10.59;83.11;99380.38;4179087;34;34154;-87
2023/05/10 03:03:16;;;;;;;;;;;;;;;10.28;84.36;99381.50;4179289;34;35158;-90
2023/05/10 03:05:44;;;;;;;;;;;;;;;10.40;83.32;99384.88;4167956;34;34825;-89
2023/05/10 03:08:12;;;;;;;;;;;;;;;10.40;83.49;99377.06;4177769;34;33545;-87
2023/05/10 03:10:50;;;;;;;;;;;;;;;10.14;84.23;99387.69;4177906;34;33989;-86
2023/05/10 03:13:21;;;;;;;;;;;;;;;10.15;84.14;99378.16;4190192;34;35324;-90
2023/05/10 03:15:54;;;;;;;;;;;;;;;10.15;84.04;99375.56;4190449;34;34706;-89
2023/05/10 03:18:22;;;;;;;;;;;;;;;9.89;85.05;99378.34;4167930;34;33996;-88
2023/05/10 03:20:54;;;;;;;;;;;;;;;9.73;85.45;99382.81;4179227;34;34245;-88
2023/05/10 03:23:40;;;;;;;;;;;;;;;9.84;85.09;99375.78;4167797;34;33855;-87
2023/05/10 03:26:09;;;;;;;;;;;;;;;9.68;85.33;99378.47;4179176;34;34301;-88
2023/05/10 03:28:36;;;;;;;;;;;;;;;9.89;84.30;99379.22;4179201;34;33461;-88
2023/05/10 03:31:05;;;;;;;;;;;;;;;10.05;84.04;99383.41;4179083;34;34899;-89
2023/05/10 03:33:34;;;;;;;;;;;;;;;10.07;82.63;99383.41;4179248;34;35862;-89
2023/05/10 03:36:02;;;;;;;;;;;;;;;9.99;83.03;99386.09;4178744;34;34809;-88
2023/05/10 03:38:30;;;;;;;;;;;;;;;10.16;81.23;99377.25;4178932;34;33675;-95
2023/05/10 03:40:58;;;;;;;;;;;;;;;10.07;82.03;99379.06;4178933;34;34239;-89
2023/05/10 03:43:28;;;;;;;;;;;;;;;10.00;82.35;99379.12;4191183;34;34893;-90
2023/05/10 03:45:55;;;;;;;;;;;;;;;9.96;82.57;99380.03;4178852;34;35118;-88
2023/05/10 03:48:24;;;;;;;;;;;;;;;10.27;81.41;99375.44;4178902;34;33552;-89
2023/05/10 03:50:53;;;;;;;;;;;;;;;10.78;79.20;99374.94;4189820;34;34581;-89
2023/05/10 03:53:22;;;;;;;;;;;;;;;10.31;80.72;99377.16;4167415;34;33591;-87
2023/05/10 03:55:51;;;;;;;;;;;;;;;10.39;80.03;99380.56;4192717;34;35052;-88
2023/05/10 03:58:18;;;;;;;;;;;;;;;10.87;77.94;99377.47;4192833;34;33319;-88
2023/05/10 04:00:46;;;;;;;;;;;;;;;10.79;78.26;99377.53;4180504;34;34246;-88
2023/05/10 04:03:14;;;;;;;;;;;;;;;11.23;76.21;99379.66;4180495;34;34170;-89
2023/05/10 04:05:42;;;;;;;;;;;;;;;11.18;75.76;99375.34;4191824;34;34484;-88
2023/05/10 04:08:11;;;;;;;;;;;;;;;10.56;78.82;99376.94;4169326;34;33642;-91
2023/05/10 04:10:39;;;;;;;;;;;;;;;10.65;78.46;99368.16;4180270;34;33677;-95
2023/05/10 04:13:07;;;;;;;;;;;;;;;10.95;77.10;99374.78;4192782;34;34826;-91
2023/05/10 04:15:35;;;;;;;;;;;;;;;11.12;76.26;99377.19;4192808;34;34572;-88
2023/05/10 04:18:15;;;;;;;;;;;;;;;11.56;73.41;99376.59;4180401;34;33403;-93
2023/05/10 04:20:43;;;;;;;;;;;;;;;12.05;72.39;99377.63;4169129;34;32769;-88
2023/05/10 04:23:11;;;;;;;;;;;;;;;12.03;72.01;99378.53;4192829;34;35754;-89
2023/05/10 04:25:39;;;;;;;;;;;;;;;12.52;69.83;99388.12;4180572;34;34814;-89
2023/05/10 04:28:07;;;;;;;;;;;;;;;12.62;68.44;99387.09;4180388;34;33630;-91
2023/05/10 04:30:36;;;;;;;;;;;;;;;12.46;69.49;99394.34;4193134;34;34194;-89
2023/05/10 04:33:05;;;;;;;;;;;;;;;12.64;69.99;99387.91;4181459;34;35228;-90
2023/05/10 04:35:33;;;;;;;;;;;;;;;13.00;67.59;99395.09;4169318;34;34461;-92
2023/05/10 04:38:01;;;;;;;;;;;;;;;13.29;66.10;99386.66;4180756;34;33509;-95
2023/05/10 04:40:29;;;;;;;;;;;;;;;13.05;67.12;99396.72;4191546;34;34899;-93
2023/05/10 04:42:58;;;;;;;;;;;;;;;13.66;65.33;99391.13;4191480;34;36081;-89
2023/05/10 04:45:26;;;;;;;;;;;;;;;13.41;64.54;99396.00;4178576;34;34678;-90
2023/05/10 04:47:54;;;;;;;;;;;;;;;13.52;64.19;99382.69;4179866;34;33199;-91
2023/05/10 04:50:22;;;;;;;;;;;;;;;13.65;64.59;99387.62;4180083;34;34869;-89
2023/05/10 04:52:50;;;;;;;;;;;;;;;13.91;64.22;99393.19;4181444;34;35947;-91
2023/05/10 04:55:20;;;;;;;;;;;;;;;14.04;63.18;99391.97;4199895;34;34730;-94
2023/05/10 04:57:48;;;;;;;;;;;;;;;13.65;64.08;99387.62;4193820;34;33198;-89
2023/05/10 05:00:17;;;;;;;;;;;;;;;14.01;63.10;99397.28;4179597;34;32359;-89
2023/05/10 05:02:45;;;;;;;;;;;;;;;14.06;63.47;99390.16;4191219;34;36264;-88
2023/05/10 05:05:14;;;;;;;;;;;;;;;14.41;62.91;99385.81;4190297;34;34858;-89
2023/05/10 05:07:42;;;;;;;;;;;;;;;14.68;60.04;99393.88;4179839;34;33675;-89
2023/05/10 05:10:10;;;;;;;;;;;;;;;14.37;61.70;99389.44;4194210;34;33994;-91
2023/05/10 05:12:38;;;;;;;;;;;;;;;14.62;59.80;99386.19;4203516;34;35230;-95
2023/05/10 05:15:08;;;;;;;;;;;;;;;14.73;60.30;99397.25;4203182;34;35081;-90
2023/05/10 05:17:36;;;;;;;;;;;;;;;14.86;59.80;99398.66;4202568;34;32979;-94
2023/05/10 05:20:05;;;;;;;;;;;;;;;14.78;61.22;99390.13;4180118;34;33459;-90
2023/05/10 05:22:33;;;;;;;;;;;;;;;14.63;61.56;99393.16;4192475;34;34833;-88
2023/05/10 05:25:02;;;;;;;;;;;;;;;15.18;59.90;99389.00;4178598;34;34755;-92
2023/05/10 05:27:30;;;;;;;;;;;;;;;15.33;58.02;99396.41;4166345;34;34317;-91
2023/05/10 05:29:58;;;;;;;;;;;;;;;15.32;58.36;99399.97;4179574;34;34239;-88
2023/05/10 05:32:26;;;;;;;;;;;;;;;15.46;59.58;99393.44;4183059;34;35116;-88
2023/05/10 05:34:54;;;;;;;;;;;;;;;16.21;56.27;99399.00;4178909;34;34726;-96
2023/05/10 05:37:25;;;;;;;;;;;;;;;16.35;55.01;99401.16;4192511;34;34275;-88
2023/05/10 05:39:54;;;;;;;;;;;;;;;16.63;53.76;99400.22;4186097;34;34324;-95
2023/05/10 05:42:22;;;;;;;;;;;;;;;16.77;53.33;99397.97;4192084;34;35296;-89
2023/05/10 05:44:50;;;;;;;;;;;;;;;16.76;54.26;99401.50;4179752;34;34994;-91
2023/05/10 05:47:18;;;;;;;;;;;;;;;17.18;53.86;99410.59;4179885;34;33821;-88
2023/05/10 05:49:46;;;;;;;;;;;;;;;17.16;52.84;99408.00;4192177;34;34257;-88
2023/05/10 05:52:14;;;;;;;;;;;;;;;16.75;53.15;99405.06;4190946;34;35139;-95
2023/05/10 05:54:42;;;;;;;;;;;;;;;16.87;53.45;99404.66;4192221;34;35918;-88
2023/05/10 05:57:10;;;;;;;;;;;;;;;16.92;52.77;99407.13;4184519;34;33366;-89
2023/05/10 05:59:41;;;;;;;;;;;;;;;16.79;52.63;99414.56;4176876;34;32391;-88
2023/05/10 06:02:10;;;;;;;;;;;;;;;17.28;51.78;99409.34;4165932;34;33945;-91
2023/05/10 06:04:38;;;;;;;;;;;;;;;17.56;50.74;99414.41;4165578;34;33314;-88
2023/05/10 06:07:09;;;;;;;;;;;;;;;17.73;49.35;99415.53;4177179;34;33006;-89
2023/05/10 06:09:37;;;;;;;;;;;;;;;18.28;49.35;99412.50;4188440;34;34241;-88
2023/05/10 06:12:05;;;;;;;;;;;;;;;17.90;48.74;99410.50;4188340;34;34889;-90
2023/05/10 06:14:33;;;;;;;;;;;;;;;17.18;50.64;99411.44;4176777;34;34277;-88
2023/05/10 06:17:03;;;;;;;;;;;;;;;17.52;50.63;99415.44;4188199;34;33235;-90
2023/05/10 06:19:31;;;;;;;;;;;;;;;17.12;51.09;99411.69;4187258;34;35067;-91
2023/05/10 06:21:59;;;;;;;;;;;;;;;17.56;49.19;99408.28;4185287;34;33805;-88
2023/05/10 06:24:27;;;;;;;;;;;;;;;17.18;51.84;99424.59;4179402;34;34541;-88
2023/05/10 06:26:55;;;;;;;;;;;;;;;18.46;48.21;99424.06;4179193;34;32047;-88
2023/05/10 06:29:23;;;;;;;;;;;;;;;18.64;47.70;99425.94;4191857;34;34133;-89
2023/05/10 06:31:51;;;;;;;;;;;;;;;19.55;46.32;99426.34;4191560;34;36118;-89
2023/05/10 06:34:19;;;;;;;;;;;;;;;19.40;45.55;99425.28;4191650;34;34649;-90
2023/05/10 06:36:46;;;;;;;;;;;;;;;17.82;47.52;99430.97;4190491;34;33382;-88
2023/05/10 06:39:15;;;;;;;;;;;;;;;17.31;50.06;99435.56;4167955;34;33362;-90
2023/05/10 06:41:44;;;;;;;;;;;;;;;17.54;49.54;99425.91;4201564;34;34879;-88
2023/05/10 06:44:12;;;;;;;;;;;;;;;17.66;49.50;99432.50;4190223;34;34759;-93
2023/05/10 06:46:41;;;;;;;;;;;;;;;18.06;49.31;99428.34;4191490;34;33337;-89
2023/05/10 06:49:09;;;;;;;;;;;;;;;18.06;49.10;99430.97;4179311;34;34969;-96
2023/05/10 06:51:37;;;;;;;;;;;;;;;18.24;47.87;99424.94;4191504;34;35175;-88
2023/05/10 06:54:06;;;;;;;;;;;;;;;18.03;49.75;99429.31;4190154;34;34651;-90
2023/05/10 06:56:35;;;;;;;;;;;;;;;18.63;47.15;99424.19;4178433;34;32946;-88
2023/05/10 06:59:02;;;;;;;;;;;;;;;19.20;46.45;99420.91;4201226;34;34318;-89
2023/05/10 07:01:31;;;;;;;;;;;;;;;18.52;45.96;99421.19;4201404;34;34875;-89
2023/05/10 07:03:58;;;;;;;;;;;;;;;18.66;47.28;99424.06;4189645;34;35061;-89
2023/05/10 07:06:27;;;;;;;;;;;;;;;19.34;46.27;99418.47;4191107;34;34344;-89
2023/05/10 07:09:00;;;;;;;;;;;;;;;19.62;45.94;99427.78;4157358;34;34329;-89
2023/05/10 07:11:28;;;;;;;;;;;;;;;20.67;42.97;99428.06;4198805;34;34979;-90
2023/05/10 07:13:56;;;;;;;;;;;;;;;20.86;43.33;99428.84;4190973;34;34708;-87
2023/05/10 07:16:25;;;;;;;;;;;;;;;21.17;41.28;99425.41;4178352;34;31920;-89
2023/05/10 07:18:53;;;;;;;;;;;;;;;20.07;42.14;99422.13;4177501;34;33803;-87
2023/05/10 07:21:23;;;;;;;;;;;;;;;19.78;44.96;99428.81;4188844;34;33999;-88
2023/05/10 07:23:52;;;;;;;;;;;;;;;19.63;43.46;99421.59;4188102;34;34244;-90
2023/05/10 07:26:20;;;;;;;;;;;;;;;20.24;42.33;99426.59;4185140;34;33298;-88
2023/05/10 07:28:48;;;;;;;;;;;;;;;20.32;42.82;99414.78;4185639;34;35038;-91
2023/05/10 07:31:16;;;;;;;;;;;;;;;19.09;44.78;99418.75;4190423;34;36146;-88
2023/05/10 07:33:44;;;;;;;;;;;;;;;19.16;45.01;99416.69;4179988;34;34747;-87
2023/05/10 07:36:12;;;;;;;;;;;;;;;19.40;44.87;99414.72;4180067;34;32686;-87
2023/05/10 07:38:40;;;;;;;;;;;;;;;19.45;45.41;99421.50;4203678;34;34979;-88
2023/05/10 07:41:08;;;;;;;;;;;;;;;19.64;45.98;99412.72;4185974;34;35003;-87
2023/05/10 07:43:36;;;;;;;;;;;;;;;20.16;43.26;99419.97;4180722;34;35094;-92
2023/05/10 07:46:05;;;;;;;;;;;;;;;18.97;43.96;99429.84;4206580;34;33300;-88
2023/05/10 07:48:32;;;;;;;;;;;;;;;18.54;46.74;99421.97;4206165;34;33951;-88
2023/05/10 07:51:00;;;;;;;;;;;;;;;19.63;44.80;99422.44;4206349;34;36095;-87
2023/05/10 07:53:29;;;;;;;;;;;;;;;20.39;44.11;99426.78;4206514;34;34905;-87
2023/05/10 07:55:58;;;;;;;;;;;;;;;20.54;43.52;99420.72;4193569;34;33654;-87
2023/05/10 07:58:25;;;;;;;;;;;;;;;20.88;40.80;99424.31;4183772;34;35246;-86
2023/05/10 08:00:54;;;;;;;;;;;;;;;21.18;41.35;99411.25;4180021;34;34923;-87
2023/05/10 08:03:22;;;;;;;;;;;;;;;20.72;41.27;99421.59;4192699;34;34357;-86
2023/05/10 08:05:51;;;;;;;;;;;;;;;21.27;40.72;99419.66;4192524;34;33534;-90
2023/05/10 08:08:19;;;;;;;;;;;;;;;20.42;41.36;99426.62;4191014;34;33995;-87
2023/05/10 08:10:48;;;;;;;;;;;;;;;20.10;41.44;99418.50;4179983;34;33978;-89
2023/05/10 08:13:16;;;;;;;;;;;;;;;19.48;42.50;99420.50;4179926;34;34803;-92
2023/05/10 08:15:43;;;;;;;;;;;;;;;19.86;43.95;99416.09;4183240;34;33630;-90
2023/05/10 08:18:28;;;;;;;;;;;;;;;19.37;44.11;99421.00;4193374;34;34518;-89
2023/05/10 08:20:56;;;;;;;;;;;;;;;18.88;45.24;99417.91;4181224;34;35515;-89
2023/05/10 08:23:24;;;;;;;;;;;;;;;19.91;42.60;99421.16;4191849;34;34311;-92
2023/05/10 08:25:51;;;;;;;;;;;;;;;20.02;42.17;99416.22;4180447;34;33771;-88
2023/05/10 08:28:22;;;;;;;;;;;;;;;20.10;41.37;99418.50;4203770;34;33315;-89
2023/05/10 08:30:49;;;;;;;;;;;;;;;20.32;41.88;99420.09;4192437;34;34974;-91
2023/05/10 08:33:18;;;;;;;;;;;;;;;20.31;42.17;99423.66;4180124;34;34820;-88
2023/05/10 08:35:46;;;;;;;;;;;;;;;20.05;43.01;99417.88;4180083;34;34349;-92
2023/05/10 08:38:14;;;;;;;;;;;;;;;20.71;43.03;99411.94;4201141;34;34100;-91
2023/05/10 08:40:42;;;;;;;;;;;;;;;20.72;40.67;99418.06;4193134;34;36098;-89
2023/05/10 08:43:11;;;;;;;;;;;;;;;20.39;40.08;99414.41;4193272;34;34760;-96
2023/05/10 08:45:40;;;;;;;;;;;;;;;20.98;40.61;99411.44;4193047;34;33518;-87
2023/05/10 08:48:09;;;;;;;;;;;;;;;22.07;38.91;99410.81;4190805;34;34905;-88
2023/05/10 08:50:37;;;;;;;;;;;;;;;21.47;39.27;99421.25;4179805;34;35118;-88
2023/05/10 08:53:12;;;;;;;;;;;;;;;20.48;40.06;99418.38;4192512;34;33764;-87
2023/05/10 08:55:42;;;;;;;;;;;;;;;20.13;40.58;99417.47;4202526;34;33233;-88
2023/05/10 08:58:10;;;;;;;;;;;;;;;20.50;39.93;99413.00;4192367;34;34116;-91
2023/05/10 09:00:38;;;;;;;;;;;;;;;21.15;38.58;99415.84;4192309;34;34827;-86
2023/05/10 09:03:06;;;;;;;;;;;;;;;21.60;38.79;99409.06;4191015;34;34126;-87
2023/05/10 09:05:35;;;;;;;;;;;;;;;21.93;37.30;99410.75;4191062;34;33633;-88
2023/05/10 09:08:02;;;;;;;;;;;;;;;22.12;35.93;99408.75;4171798;34;34256;-87
2023/05/10 09:10:31;;;;;;;;;;;;;;;20.59;38.84;99417.81;4192815;34;35080;-90
2023/05/10 09:12:59;;;;;;;;;;;;;;;20.32;40.29;99415.63;4199175;34;35353;-88
2023/05/10 09:15:27;;;;;;;;;;;;;;;20.57;39.11;99407.31;4190917;34;33521;-88
2023/05/10 09:17:55;;;;;;;;;;;;;;;20.36;40.72;99411.91;4175616;34;33430;-88
2023/05/10 09:20:24;;;;;;;;;;;;;;;20.72;39.27;99404.84;4191830;34;36064;-87
2023/05/10 09:22:52;;;;;;;;;;;;;;;20.43;40.18;99407.16;4172881;34;35375;-87
2023/05/10 09:25:20;;;;;;;;;;;;;;;19.69;40.87;99394.88;4184493;34;34282;-86
2023/05/10 09:27:48;;;;;;;;;;;;;;;20.85;39.95;99408.59;4192294;34;33815;-88
2023/05/10 09:30:26;;;;;;;;;;;;;;;21.35;38.65;99406.84;4190632;34;36025;-87
2023/05/10 09:32:55;;;;;;;;;;;;;;;22.04;36.54;99397.75;4202539;34;35494;-88
2023/05/10 09:35:23;;;;;;;;;;;;;;;22.65;35.77;99395.12;4192289;34;33753;-89
2023/05/10 09:37:56;;;;;;;;;;;;;;;23.39;35.26;99395.94;4192155;34;34283;-92
2023/05/10 09:40:24;;;;;;;;;;;;;;;22.42;34.75;99392.03;4198193;34;35171;-92
2023/05/10 09:42:56;;;;;;;;;;;;;;;22.75;35.77;99396.28;4206186;34;35417;-88
2023/05/10 09:45:25;;;;;;;;;;;;;;;22.30;36.91;99406.84;4206488;34;33645;-95
2023/05/10 09:47:53;;;;;;;;;;;;;;;21.25;39.08;99395.00;4186989;34;34148;-86
2023/05/10 09:50:21;;;;;;;;;;;;;;;21.22;39.46;99398.69;4174231;34;35977;-86
2023/05/10 09:52:51;;;;;;;;;;;;;;;21.26;37.93;99402.88;4192962;34;34755;-87
2023/05/10 09:55:19;;;;;;;;;;;;;;;20.71;38.38;99395.22;4206400;34;33767;-91
2023/05/10 09:57:48;;;;;;;;;;;;;;;20.84;38.88;99396.28;4206393;34;34055;-86
2023/05/10 10:00:17;;;;;;;;;;;;;;;21.30;38.15;99393.84;4182790;34;34893;-90
2023/05/10 10:02:53;;;;;;;;;;;;;;;22.22;36.96;99387.88;4206268;34;34375;-88
2023/05/10 10:05:27;;;;;;;;;;;;;;;21.88;36.30;99383.63;4193995;34;33563;-93
2023/05/10 10:07:56;;;;;;;;;;;;;;;22.14;37.41;99387.44;4206197;34;33906;-91
2023/05/10 10:10:27;;;;;;;;;;;;;;;20.74;38.48;99389.78;4205643;34;35327;-94
2023/05/10 10:12:55;;;;;;;;;;;;;;;21.30;38.28;99380.62;4187578;34;34798;-91
2023/05/10 10:15:23;;;;;;;;;;;;;;;21.69;37.71;99379.38;4191424;34;33368;-90
2023/05/10 10:17:52;;;;;;;;;;;;;;;22.67;35.68;99372.84;4201415;34;34582;-96
2023/05/10 10:20:21;;;;;;;;;;;;;;;22.56;34.86;99375.28;4195136;34;34799;-87
2023/05/10 10:22:49;;;;;;;;;;;;;;;22.37;35.20;99386.13;4203847;34;34730;-93
2023/05/10 10:25:17;;;;;;;;;;;;;;;21.66;37.85;99373.41;4205714;34;34475;-87
2023/05/10 10:27:53;;;;;;;;;;;;;;;21.22;38.01;99374.88;4205893;34;34494;-87
2023/05/10 10:30:28;;;;;;;;;;;;;;;20.39;40.66;99374.72;4205466;34;36292;-90
2023/05/10 10:33:14;;;;;;;;;;;;;;;21.12;38.70;99371.00;4205849;34;35084;-87
2023/05/10 10:35:55;;;;;;;;;;;;;;;21.95;36.75;99379.69;4194624;34;33202;-89
2023/05/10 10:38:23;;;;;;;;;;;;;;;21.31;38.86;99369.06;4193337;34;33781;-89
2023/05/10 10:41:03;;;;;;;;;;;;;;;21.48;37.70;99369.97;4196483;34;35192;-88
2023/05/10 10:43:31;;;;;;;;;;;;;;;21.58;37.08;99360.56;4178501;34;34828;-89
2023/05/10 10:46:08;;;;;;;;;;;;;;;21.43;37.13;99356.09;4192154;34;33639;-88
2023/05/10 10:48:37;;;;;;;;;;;;;;;22.44;36.48;99350.31;4191055;34;34089;-92
2023/05/10 10:51:04;;;;;;;;;;;;;;;22.07;36.93;99371.03;4190121;34;35278;-88
2023/05/10 10:53:32;;;;;;;;;;;;;;;22.62;34.81;99352.81;4190044;34;34921;-88
2023/05/10 10:56:09;;;;;;;;;;;;;;;21.54;36.44;99348.44;4191464;34;33107;-87
2023/05/10 10:58:37;;;;;;;;;;;;;;;22.30;39.88;99342.34;4179347;34;34135;-88
2023/05/10 11:01:10;;;;;;;;;;;;;;;23.76;35.65;99340.44;4176422;34;35403;-89
2023/05/10 11:03:38;;;;;;;;;;;;;;;23.47;34.16;99346.69;4190283;34;33199;-87
2023/05/10 11:06:07;;;;;;;;;;;;;;;22.69;35.29;99331.13;4190223;34;33759;-90
2023/05/10 11:08:44;;;;;;;;;;;;;;;22.35;34.80;99340.28;4178833;34;34270;-88
2023/05/10 11:11:14;;;;;;;;;;;;;;;23.45;34.27;99332.66;4168167;34;34860;-89
2023/05/10 11:13:45;;;;;;;;;;;;;;;22.48;34.28;99335.97;4166779;34;34756;-94
2023/05/10 11:16:23;;;;;;;;;;;;;;;22.78;33.68;99332.34;4168871;34;33625;-95
2023/05/10 11:18:54;;;;;;;;;;;;;;;23.12;32.96;99316.16;4179328;34;34566;-93
2023/05/10 11:21:22;;;;;;;;;;;;;;;22.85;34.84;99323.09;4191718;34;35463;-91
2023/05/10 11:23:51;;;;;;;;;;;;;;;22.43;35.49;99322.09;4191320;34;35137;-90
2023/05/10 11:26:19;;;;;;;;;;;;;;;22.21;34.98;99326.94;4191455;34;33240;-93
2023/05/10 11:28:48;;;;;;;;;;;;;;;21.37;36.56;99321.06;4191344;34;34130;-90
2023/05/10 11:31:16;;;;;;;;;;;;;;;21.76;36.42;99313.63;4167683;34;35184;-93
2023/05/10 11:33:48;;;;;;;;;;;;;;;21.67;36.64;99327.38;4167903;34;34485;-95
2023/05/10 11:36:17;;;;;;;;;;;;;;;21.47;36.40;99312.63;4191560;34;34357;-96
2023/05/10 11:38:45;;;;;;;;;;;;;;;21.92;36.13;99321.56;4179440;34;34208;-90
2023/05/10 11:41:13;;;;;;;;;;;;;;;22.32;34.55;99314.78;4179143;34;35254;-89
2023/05/10 11:43:42;;;;;;;;;;;;;;;22.42;33.60;99309.78;4178981;34;34567;-89
2023/05/10 11:46:10;;;;;;;;;;;;;;;23.12;34.04;99309.06;4179031;34;33925;-91
2023/05/10 11:48:39;;;;;;;;;;;;;;;22.90;34.02;99309.50;4191398;34;34044;-95
2023/05/10 11:51:27;;;;;;;;;;;;;;;22.72;33.78;99314.16;4191581;34;36131;-96
2023/05/10 11:53:56;;;;;;;;;;;;;;;22.24;33.61;99316.16;4168060;34;34551;-92
2023/05/10 11:56:26;;;;;;;;;;;;;;;22.12;34.33;99317.72;4178886;34;33538;-91
2023/05/10 11:58:55;;;;;;;;;;;;;;;21.31;35.54;99305.50;4191121;34;34307;-89
2023/05/10 12:01:26;;;;;;;;;;;;;;;21.34;35.18;99315.94;4167782;34;35093;-96
2023/05/10 12:03:58;;;;;;;;;;;;;;;21.40;34.99;99314.72;4167700;34;33795;-93
2023/05/10 12:06:30;;;;;;;;;;;;;;;21.32;35.45;99307.22;4178740;34;32801;-89
2023/05/10 12:08:59;;;;;;;;;;;;;;;20.86;35.87;99308.84;4179276;34;33931;-91
2023/05/10 12:11:27;;;;;;;;;;;;;;;20.77;35.99;99320.78;4178695;34;36123;-90
2023/05/10 12:13:56;;;;;;;;;;;;;;;20.72;36.55;99315.75;4191495;34;34887;-89
2023/05/10 12:16:44;;;;;;;;;;;;;;;20.42;36.29;99311.09;4174533;34;33524;-95
2023/05/10 12:19:12;;;;;;;;;;;;;;;19.92;39.35;99308.37;4169791;34;33558;-90
2023/05/10 12:21:41;;;;;;;;;;;;;;;20.36;36.67;99306.13;4181852;34;34308;-95
2023/05/10 12:24:10;;;;;;;;;;;;;;;20.86;37.34;99304.44;4193258;34;34555;-93
2023/05/10 12:26:38;;;;;;;;;;;;;;;20.86;35.65;99307.09;4180774;34;33502;-91
2023/05/10 12:29:24;;;;;;;;;;;;;;;20.40;36.70;99302.41;4193331;34;33650;-91
2023/05/10 12:31:52;;;;;;;;;;;;;;;20.42;37.33;99291.75;4193040;34;34826;-94
2023/05/10 12:34:27;;;;;;;;;;;;;;;20.71;38.05;99299.97;4169253;34;33665;-89
2023/05/10 12:36:55;;;;;;;;;;;;;;;20.92;36.54;99290.88;4180666;34;33295;-89
2023/05/10 12:39:23;;;;;;;;;;;;;;;20.90;35.79;99289.25;4181133;34;34986;-94
2023/05/10 12:41:51;;;;;;;;;;;;;;;21.11;35.85;99287.22;4180829;34;36030;-91
2023/05/10 12:44:19;;;;;;;;;;;;;;;20.94;36.84;99285.50;4181303;34;34855;-91
2023/05/10 12:46:47;;;;;;;;;;;;;;;20.59;37.14;99301.41;4180595;34;34067;-95
2023/05/10 12:49:15;;;;;;;;;;;;;;;20.44;37.11;99284.56;4180475;34;34213;-90
2023/05/10 12:51:43;;;;;;;;;;;;;;;20.91;37.23;99275.94;4192644;34;35189;-91
2023/05/10 12:54:11;;;;;;;;;;;;;;;21.14;36.51;99273.78;4193005;34;34417;-92
2023/05/10 12:56:40;;;;;;;;;;;;;;;21.06;35.54;99273.38;4192779;34;34319;-89
2023/05/10 12:59:08;;;;;;;;;;;;;;;20.79;36.04;99261.56;4169557;34;32738;-89